Time;durP1;ratioP1;P1;durP2;ratioP2;P2;SDS_P1;SDS_P2;PMS_P1;PMS_P2;Temp;Humidity;BMP_temperature;BMP_pressure;BME280_temperature;BME280_humidity;BME280_pressure;Samples;Min_cycle;Max_cycle;Signal;HPM_P1;HPM_P2
2022/03/02 00:01:52;;;;;;;27.13;15.80;;;9.70;99.90;;;;;;5034993;28;20168;-78
2022/03/02 00:04:18;;;;;;;32.85;16.02;;;9.80;99.90;;;;;;5035351;28;20243;-78
2022/03/02 00:06:44;;;;;;;28.20;16.55;;;9.90;99.90;;;;;;5035232;28;20168;-79
2022/03/02 00:09:10;;;;;;;34.58;17.48;;;9.90;99.90;;;;;;5034957;28;20210;-78
2022/03/02 00:11:36;;;;;;;26.92;16.38;;;10.00;99.90;;;;;;5035129;28;20157;-81
2022/03/02 00:14:03;;;;;;;25.98;16.90;;;9.90;99.90;;;;;;5043064;28;20190;-78
2022/03/02 00:16:29;;;;;;;28.38;17.30;;;9.90;99.90;;;;;;5042865;28;20164;-79
2022/03/02 00:18:56;;;;;;;29.17;15.73;;;9.80;99.90;;;;;;5035201;28;20225;-79
2022/03/02 00:21:21;;;;;;;28.88;16.58;;;9.70;99.90;;;;;;5035196;28;20172;-78
2022/03/02 00:23:47;;;;;;;24.33;15.55;;;9.70;99.90;;;;;;5035237;28;20195;-78
2022/03/02 00:26:13;;;;;;;32.25;16.70;;;9.90;99.90;;;;;;5034986;28;20192;-78
2022/03/02 00:28:39;;;;;;;27.30;17.15;;;10.00;99.90;;;;;;5033405;28;20199;-78
2022/03/02 00:31:05;;;;;;;25.92;15.93;;;10.00;99.90;;;;;;5033516;28;20168;-79
2022/03/02 00:33:30;;;;;;;29.98;16.75;;;10.10;99.90;;;;;;5035201;28;20168;-78
2022/03/02 00:35:56;;;;;;;30.13;16.95;;;10.00;99.90;;;;;;5036556;28;20196;-79
2022/03/02 00:38:22;;;;;;;31.50;17.35;;;9.90;99.90;;;;;;5038151;28;20168;-80
2022/03/02 00:40:48;;;;;;;30.13;18.42;;;9.90;99.90;;;;;;5038796;28;20589;-77
2022/03/02 00:43:13;;;;;;;29.00;17.13;;;10.00;99.90;;;;;;5040239;28;20182;-78
2022/03/02 00:45:39;;;;;;;28.55;16.85;;;10.00;99.90;;;;;;5039789;28;20203;-77
2022/03/02 00:48:06;;;;;;;28.33;16.95;;;9.90;99.90;;;;;;5037591;28;20234;-77
2022/03/02 00:50:33;;;;;;;25.42;16.05;;;9.90;99.90;;;;;;5038474;28;20229;-78
2022/03/02 00:52:59;;;;;;;52.88;18.13;;;9.90;99.90;;;;;;5038689;28;20171;-78
2022/03/02 00:55:25;;;;;;;34.80;19.55;;;9.80;99.90;;;;;;5037228;28;20192;-78
2022/03/02 00:57:50;;;;;;;30.38;17.42;;;9.80;99.90;;;;;;5036892;28;20254;-78
2022/03/02 01:00:17;;;;;;;29.70;18.02;;;9.80;99.90;;;;;;5036482;28;20199;-78
2022/03/02 01:02:43;;;;;;;38.67;16.95;;;9.80;99.90;;;;;;5034151;28;20195;-78
2022/03/02 01:05:09;;;;;;;33.88;18.98;;;9.60;99.90;;;;;;5037138;28;20191;-78
2022/03/02 01:07:35;;;;;;;30.10;18.67;;;9.50;99.90;;;;;;5038780;28;20652;-78
2022/03/02 01:10:04;;;;;;;31.05;17.45;;;9.50;99.90;;;;;;5037313;28;20267;-78
2022/03/02 01:12:30;;;;;;;27.73;17.25;;;9.40;99.90;;;;;;5036309;28;20168;-78
2022/03/02 01:14:56;;;;;;;27.88;17.10;;;9.50;99.90;;;;;;5036869;28;20200;-78
2022/03/02 01:17:23;;;;;;;29.50;17.30;;;9.60;99.90;;;;;;5035910;28;20187;-78
2022/03/02 01:19:49;;;;;;;36.33;17.75;;;9.60;99.90;;;;;;5036218;28;20175;-77
2022/03/02 01:22:15;;;;;;;36.50;16.17;;;9.50;99.90;;;;;;5035974;28;20185;-78
2022/03/02 01:24:42;;;;;;;36.55;18.02;;;9.60;99.90;;;;;;5034974;28;20288;-79
2022/03/02 01:27:08;;;;;;;31.58;17.88;;;9.60;99.90;;;;;;5036540;28;20163;-79
2022/03/02 01:29:36;;;;;;;34.53;18.40;;;9.40;99.90;;;;;;5035273;28;20206;-78
2022/03/02 01:32:07;;;;;;;31.77;17.75;;;9.20;99.90;;;;;;5035108;28;20176;-77
2022/03/02 01:34:33;;;;;;;30.00;17.25;;;9.40;99.90;;;;;;5034679;28;20180;-77
2022/03/02 01:36:59;;;;;;;30.60;18.35;;;9.70;99.90;;;;;;5037218;28;20172;-78
2022/03/02 01:39:25;;;;;;;33.35;17.98;;;9.60;99.90;;;;;;5036745;28;20168;-78
2022/03/02 01:41:51;;;;;;;33.28;18.48;;;9.40;99.90;;;;;;5035382;28;20204;-79
2022/03/02 01:44:16;;;;;;;32.10;17.38;;;9.30;99.90;;;;;;5036457;28;20186;-77
2022/03/02 01:46:42;;;;;;;35.70;17.58;;;9.30;99.90;;;;;;5034863;28;20176;-77
2022/03/02 01:49:08;;;;;;;37.53;18.13;;;9.20;99.90;;;;;;5036056;28;20191;-78
2022/03/02 01:51:34;;;;;;;33.50;16.35;;;9.30;99.90;;;;;;5034349;28;20172;-77
2022/03/02 01:54:00;;;;;;;30.98;18.08;;;9.30;99.90;;;;;;5036384;28;20186;-78
2022/03/02 01:56:27;;;;;;;34.20;18.42;;;9.30;99.90;;;;;;5037181;28;20226;-77
2022/03/02 01:58:53;;;;;;;34.83;19.98;;;9.20;99.90;;;;;;5036572;28;20159;-77
2022/03/02 02:01:20;;;;;;;33.65;18.67;;;9.10;99.90;;;;;;5039060;28;20652;-79
2022/03/02 02:03:46;;;;;;;29.35;17.80;;;9.10;99.90;;;;;;5036931;28;20195;-78
2022/03/02 02:06:13;;;;;;;39.95;18.80;;;8.90;99.90;;;;;;5038337;28;20191;-78
2022/03/02 02:08:40;;;;;;;36.45;18.23;;;9.00;99.90;;;;;;5039057;28;20175;-77
2022/03/02 02:11:05;;;;;;;39.30;20.55;;;9.00;99.90;;;;;;5037378;28;20247;-77
2022/03/02 02:13:33;;;;;;;37.75;18.63;;;9.00;99.90;;;;;;5034643;28;20209;-77
2022/03/02 02:15:59;;;;;;;42.70;19.77;;;8.90;99.90;;;;;;5033154;28;20214;-78
2022/03/02 02:18:25;;;;;;;31.15;18.17;;;8.90;99.90;;;;;;5033257;28;20171;-77
2022/03/02 02:20:50;;;;;;;40.47;20.23;;;8.90;99.90;;;;;;5033057;28;20168;-78
2022/03/02 02:23:16;;;;;;;34.05;18.48;;;8.80;99.90;;;;;;5033326;28;20507;-78
2022/03/02 02:25:42;;;;;;;37.13;19.48;;;8.70;99.90;;;;;;5032814;28;20231;-80
2022/03/02 02:28:12;;;;;;;30.40;18.67;;;8.50;99.90;;;;;;5033320;28;20163;-78
2022/03/02 02:30:38;;;;;;;41.72;20.10;;;8.60;99.90;;;;;;5032982;28;20211;-78
2022/03/02 02:33:05;;;;;;;38.30;18.98;;;8.70;99.90;;;;;;5033141;28;20182;-78
2022/03/02 02:35:32;;;;;;;40.63;19.80;;;8.70;99.90;;;;;;5034482;28;20196;-77
2022/03/02 02:37:59;;;;;;;32.13;17.88;;;8.90;99.90;;;;;;5040594;28;20195;-76
2022/03/02 02:40:26;;;;;;;40.05;18.88;;;8.90;99.90;;;;;;5041092;28;20662;-77
2022/03/02 02:42:52;;;;;;;35.90;19.67;;;8.80;99.90;;;;;;5036995;28;20246;-77
2022/03/02 02:45:22;;;;;;;28.75;18.45;;;9.00;99.90;;;;;;5036960;28;20206;-78
2022/03/02 02:47:54;;;;;;;37.03;18.83;;;9.00;99.90;;;;;;5037275;28;20160;-77
2022/03/02 02:50:26;;;;;;;29.65;19.35;;;9.00;99.90;;;;;;5036930;28;20242;-78
2022/03/02 02:52:53;;;;;;;32.42;19.10;;;8.80;99.90;;;;;;5037016;28;20251;-77
2022/03/02 02:55:19;;;;;;;31.98;17.70;;;8.70;99.90;;;;;;5037023;28;20187;-78
2022/03/02 02:57:45;;;;;;;41.63;19.58;;;8.60;99.90;;;;;;5036966;28;20728;-78
2022/03/02 03:00:14;;;;;;;33.05;19.70;;;8.60;99.90;;;;;;5036813;28;20254;-79
2022/03/02 03:02:40;;;;;;;36.03;19.00;;;8.30;99.90;;;;;;5037085;28;20172;-77
2022/03/02 03:05:11;;;;;;;37.88;18.17;;;8.10;99.90;;;;;;5036786;28;20581;-79
2022/03/02 03:07:38;;;;;;;25.48;17.58;;;8.20;99.90;;;;;;5036795;28;20528;-79
2022/03/02 03:10:05;;;;;;;34.28;19.75;;;8.10;99.90;;;;;;5036797;28;20211;-77
2022/03/02 03:12:30;;;;;;;39.90;19.90;;;8.00;99.90;;;;;;5036841;28;20229;-77
2022/03/02 03:14:56;;;;;;;30.05;18.30;;;8.10;99.90;;;;;;5036363;28;20703;-77
2022/03/02 03:17:22;;;;;;;30.40;18.30;;;8.10;99.90;;;;;;5036111;28;20179;-78
2022/03/02 03:19:47;;;;;;;29.88;18.67;;;8.10;99.90;;;;;;5036471;28;20278;-78
2022/03/02 03:22:13;;;;;;;35.75;18.48;;;8.20;99.90;;;;;;5036636;28;20210;-77
2022/03/02 03:24:39;;;;;;;33.88;17.48;;;8.10;99.90;;;;;;5036438;28;20210;-78
2022/03/02 03:27:04;;;;;;;32.72;18.27;;;8.00;99.90;;;;;;5036671;28;20188;-78
2022/03/02 03:29:30;;;;;;;29.05;19.20;;;7.90;99.90;;;;;;5036247;28;20207;-78
2022/03/02 03:31:55;;;;;;;37.53;20.20;;;7.90;99.90;;;;;;5036787;28;20168;-78
2022/03/02 03:34:21;;;;;;;28.67;18.35;;;8.00;99.90;;;;;;5037066;28;20190;-77
2022/03/02 03:36:47;;;;;;;39.80;19.35;;;8.10;99.90;;;;;;5037072;28;20168;-78
2022/03/02 03:39:12;;;;;;;31.38;18.95;;;8.30;99.90;;;;;;5036040;28;20160;-79
2022/03/02 03:41:38;;;;;;;38.92;19.67;;;8.10;99.90;;;;;;5036527;28;20191;-78
2022/03/02 03:44:03;;;;;;;41.25;19.60;;;8.00;99.90;;;;;;5035700;28;20214;-78
2022/03/02 03:46:29;;;;;;;29.80;17.92;;;8.20;99.90;;;;;;5037329;28;20530;-78
2022/03/02 03:48:55;;;;;;;36.42;20.08;;;8.30;99.90;;;;;;5036895;28;20175;-79
2022/03/02 03:51:20;;;;;;;34.92;17.35;;;8.30;99.90;;;;;;5036786;28;20168;-78
2022/03/02 03:53:46;;;;;;;38.58;18.50;;;8.20;99.90;;;;;;5036799;28;20172;-78
2022/03/02 03:56:12;;;;;;;30.88;17.95;;;8.00;99.90;;;;;;5037076;28;20199;-79
2022/03/02 03:58:37;;;;;;;36.80;18.38;;;8.20;99.90;;;;;;5037092;28;20178;-78
2022/03/02 04:01:03;;;;;;;32.00;17.75;;;8.20;99.90;;;;;;5037434;28;20240;-77
2022/03/02 04:03:29;;;;;;;30.98;18.65;;;8.20;99.90;;;;;;5036831;28;20168;-78
2022/03/02 04:05:55;;;;;;;43.47;18.98;;;8.10;99.90;;;;;;5036796;28;20188;-77
2022/03/02 04:08:22;;;;;;;27.58;17.48;;;8.10;99.90;;;;;;5036747;28;20172;-79
2022/03/02 04:10:49;;;;;;;27.48;17.80;;;8.10;99.90;;;;;;5035994;28;20674;-78
2022/03/02 04:13:15;;;;;;;34.20;18.05;;;8.00;99.90;;;;;;5036223;28;20254;-78
2022/03/02 04:15:41;;;;;;;35.42;18.35;;;8.00;99.90;;;;;;5036127;28;20256;-78
2022/03/02 04:18:07;;;;;;;34.20;17.35;;;8.00;99.90;;;;;;5036284;28;20636;-78
2022/03/02 04:20:34;;;;;;;35.63;19.95;;;8.00;99.90;;;;;;5036214;28;20628;-79
2022/03/02 04:23:00;;;;;;;34.85;18.15;;;7.90;99.90;;;;;;5036142;28;20168;-78
2022/03/02 04:25:25;;;;;;;32.45;18.48;;;8.00;99.90;;;;;;5036113;28;20212;-77
2022/03/02 04:27:51;;;;;;;33.63;17.73;;;7.90;99.90;;;;;;5036191;28;20172;-78
2022/03/02 04:30:17;;;;;;;34.45;18.10;;;7.70;99.90;;;;;;5036935;28;20200;-78
2022/03/02 04:32:43;;;;;;;26.88;17.08;;;7.70;99.90;;;;;;5036267;28;20218;-78
2022/03/02 04:35:10;;;;;;;25.75;16.27;;;7.70;99.90;;;;;;5036697;28;20212;-77
2022/03/02 04:37:36;;;;;;;36.95;17.55;;;7.50;99.90;;;;;;5038134;28;20164;-78
2022/03/02 04:40:04;;;;;;;27.95;17.25;;;7.50;99.90;;;;;;5037471;28;20708;-77
2022/03/02 04:42:29;;;;;;;28.58;17.40;;;7.40;99.90;;;;;;5039002;28;20629;-78
2022/03/02 04:44:55;;;;;;;33.88;17.08;;;7.40;99.90;;;;;;5039737;28;20201;-77
2022/03/02 04:47:20;;;;;;;32.50;17.08;;;7.40;99.90;;;;;;5035854;28;20625;-77
2022/03/02 04:49:46;;;;;;;46.55;17.95;;;7.30;99.90;;;;;;5037397;28;20556;-78
2022/03/02 04:52:12;;;;;;;28.35;16.23;;;7.40;99.90;;;;;;5035833;28;20172;-78
2022/03/02 04:57:22;;;;;;;35.92;17.17;;;7.30;99.90;;;;;;5034872;28;20194;-78
2022/03/02 04:59:47;;;;;;;31.83;17.10;;;7.30;99.90;;;;;;5033287;28;20259;-78
2022/03/02 05:02:13;;;;;;;35.47;17.00;;;7.40;99.90;;;;;;5035129;28;20617;-78
2022/03/02 05:04:39;;;;;;;27.80;16.65;;;7.40;99.90;;;;;;5033820;28;20309;-78
2022/03/02 05:07:04;;;;;;;32.72;17.38;;;7.60;99.90;;;;;;5035189;28;20160;-79
2022/03/02 05:09:30;;;;;;;30.92;17.00;;;7.50;99.90;;;;;;5035326;28;20215;-79
2022/03/02 05:11:55;;;;;;;34.13;17.70;;;7.60;99.90;;;;;;5034257;28;20168;-79
2022/03/02 05:14:21;;;;;;;25.75;16.52;;;7.60;99.90;;;;;;5035045;28;20194;-78
2022/03/02 05:16:46;;;;;;;37.72;17.95;;;7.50;99.90;;;;;;5035204;28;20159;-78
2022/03/02 05:19:12;;;;;;;32.88;16.38;;;7.60;99.90;;;;;;5034320;28;20204;-77
2022/03/02 05:21:38;;;;;;;28.10;16.80;;;7.60;99.90;;;;;;5034822;28;20584;-78
2022/03/02 05:24:04;;;;;;;32.05;17.77;;;7.70;99.90;;;;;;5033943;28;20183;-78
2022/03/02 05:26:29;;;;;;;29.30;16.58;;;7.70;99.90;;;;;;5034050;28;20730;-78
2022/03/02 05:28:55;;;;;;;26.08;16.80;;;7.60;99.90;;;;;;5033723;28;20172;-78
2022/03/02 05:31:23;;;;;;;32.67;17.25;;;7.60;99.90;;;;;;5033633;28;20803;-78
2022/03/02 05:33:51;;;;;;;31.80;17.55;;;7.70;99.90;;;;;;5033517;28;20170;-78
2022/03/02 05:36:17;;;;;;;29.98;17.55;;;7.70;99.90;;;;;;5033257;28;20180;-78
2022/03/02 05:38:43;;;;;;;26.02;16.42;;;7.70;99.90;;;;;;5033141;28;20164;-79
2022/03/02 05:41:08;;;;;;;30.02;17.58;;;7.70;99.90;;;;;;5033043;28;20186;-78
2022/03/02 05:43:34;;;;;;;27.20;16.35;;;7.70;99.90;;;;;;5033285;28;20168;-78
2022/03/02 05:46:00;;;;;;;31.08;18.92;;;7.70;99.90;;;;;;5031473;28;20196;-78
2022/03/02 05:48:25;;;;;;;31.75;18.67;;;7.50;99.90;;;;;;5033283;28;20255;-78
2022/03/02 05:50:51;;;;;;;33.53;16.48;;;7.30;99.90;;;;;;5032789;28;20208;-78
2022/03/02 05:53:17;;;;;;;31.90;17.58;;;7.10;99.90;;;;;;5033002;28;20160;-78
2022/03/02 05:55:43;;;;;;;35.85;18.08;;;7.20;99.90;;;;;;5032766;28;20246;-79
2022/03/02 05:58:09;;;;;;;28.23;15.90;;;7.30;99.90;;;;;;5033248;28;20156;-78
2022/03/02 06:00:34;;;;;;;34.45;17.38;;;7.30;99.90;;;;;;5033416;28;20209;-78
2022/03/02 06:03:00;;;;;;;30.90;16.73;;;7.20;99.90;;;;;;5033106;28;20663;-78
2022/03/02 06:05:26;;;;;;;28.23;17.10;;;7.10;99.90;;;;;;5033279;28;20188;-78
2022/03/02 06:07:51;;;;;;;32.63;16.73;;;7.10;99.90;;;;;;5032981;28;20739;-78
2022/03/02 06:10:18;;;;;;;38.47;16.77;;;7.10;99.90;;;;;;5032392;28;20563;-79
2022/03/02 06:12:44;;;;;;;34.72;17.38;;;7.20;99.90;;;;;;5032655;28;20175;-78
2022/03/02 06:15:12;;;;;;;31.15;16.35;;;7.10;99.90;;;;;;5032915;28;20192;-79
2022/03/02 06:17:38;;;;;;;32.63;16.67;;;6.80;99.90;;;;;;5032445;28;20164;-78
2022/03/02 06:20:05;;;;;;;30.38;16.92;;;6.50;99.90;;;;;;5032966;28;20176;-79
2022/03/02 06:22:31;;;;;;;31.05;16.15;;;6.40;99.90;;;;;;5032907;28;20172;-78
2022/03/02 06:24:57;;;;;;;39.95;17.27;;;6.20;99.90;;;;;;5047402;22;20264;-79
2022/03/02 06:27:23;;;;;;;34.42;15.75;;;6.10;99.90;;;;;;5032398;28;20254;-79
2022/03/02 06:29:49;;;;;;;30.40;15.18;;;6.10;99.90;;;;;;5032198;28;20606;-79
2022/03/02 06:32:15;;;;;;;34.13;17.00;;;6.10;99.90;;;;;;5031061;28;20621;-79
2022/03/02 06:34:41;;;;;;;32.13;15.90;;;6.10;99.90;;;;;;5031047;28;20191;-79
2022/03/02 06:37:07;;;;;;;24.75;16.15;;;6.10;99.90;;;;;;5032552;28;20172;-80
2022/03/02 06:39:33;;;;;;;24.42;14.95;;;6.10;99.90;;;;;;5032046;28;20183;-79
2022/03/02 06:42:29;;;;;;;49.25;16.52;;;6.20;99.90;;;;;;5032016;28;20163;-80
2022/03/02 06:44:56;;;;;;;29.65;14.93;;;6.10;99.90;;;;;;5031958;28;20184;-80
2022/03/02 06:47:36;;;;;;;32.72;16.55;;;6.20;99.90;;;;;;5032236;28;20176;-79
2022/03/02 06:50:09;;;;;;;26.40;16.42;;;6.30;99.90;;;;;;5032234;28;20199;-79
2022/03/02 06:52:40;;;;;;;27.25;15.43;;;6.30;99.90;;;;;;5031759;28;20239;-80
2022/03/02 06:55:09;;;;;;;33.22;16.63;;;6.40;99.90;;;;;;5032132;28;20199;-80
2022/03/02 06:57:36;;;;;;;37.08;17.10;;;6.40;99.90;;;;;;5032134;28;20601;-79
2022/03/02 07:00:08;;;;;;;60.20;19.70;;;6.40;99.90;;;;;;5032071;28;20164;-79
2022/03/02 07:02:48;;;;;;;44.47;17.25;;;6.30;99.90;;;;;;5032020;28;20643;-79
2022/03/02 07:05:15;;;;;;;59.13;17.70;;;6.30;99.90;;;;;;5030675;28;20529;-79
2022/03/02 07:07:42;;;;;;;35.42;17.23;;;6.40;99.90;;;;;;5032125;28;20179;-79
2022/03/02 07:10:09;;;;;;;38.80;16.15;;;6.30;99.90;;;;;;5031898;28;20676;-79
2022/03/02 07:12:36;;;;;;;49.45;17.63;;;6.30;99.90;;;;;;5031525;28;20163;-79
2022/03/02 07:15:04;;;;;;;26.92;15.63;;;6.30;99.90;;;;;;5031551;28;20188;-80
2022/03/02 07:17:32;;;;;;;51.50;16.42;;;6.40;99.90;;;;;;5031848;28;20168;-80
2022/03/02 07:19:59;;;;;;;38.83;17.75;;;6.50;99.90;;;;;;5030625;28;20603;-80
2022/03/02 07:22:30;;;;;;;32.58;17.08;;;6.50;99.90;;;;;;5031924;28;20637;-80
2022/03/02 07:25:00;;;;;;;32.22;18.60;;;6.50;99.90;;;;;;5035364;28;20200;-80
2022/03/02 07:27:26;;;;;;;28.65;16.08;;;6.60;99.90;;;;;;5035381;28;20269;-80
2022/03/02 07:29:53;;;;;;;26.00;15.15;;;6.70;99.90;;;;;;5034091;28;20549;-80
2022/03/02 07:32:31;;;;;;;25.58;14.73;;;6.80;99.90;;;;;;5033858;28;20179;-80
2022/03/02 07:34:58;;;;;;;32.25;16.52;;;6.90;99.90;;;;;;5035267;28;20187;-80
2022/03/02 07:37:25;;;;;;;30.17;16.20;;;6.80;99.90;;;;;;5035019;28;20163;-80
2022/03/02 07:39:51;;;;;;;30.15;16.05;;;6.80;99.90;;;;;;5035025;28;20625;-80
2022/03/02 07:42:17;;;;;;;24.38;15.02;;;6.90;99.90;;;;;;5033984;28;20242;-80
2022/03/02 07:44:43;;;;;;;31.85;17.02;;;7.10;99.90;;;;;;5035122;28;20242;-80
2022/03/02 07:47:09;;;;;;;31.08;17.00;;;7.20;99.90;;;;;;5033839;28;20172;-80
2022/03/02 07:49:35;;;;;;;33.35;18.08;;;7.30;99.90;;;;;;5035057;28;20316;-80
2022/03/02 07:52:05;;;;;;;35.42;16.55;;;7.40;99.90;;;;;;5033601;28;20175;-80
2022/03/02 07:54:35;;;;;;;37.47;16.80;;;7.50;99.90;;;;;;5033680;28;20206;-80
2022/03/02 07:57:01;;;;;;;34.65;18.50;;;7.80;99.90;;;;;;5035213;28;20699;-80
2022/03/02 07:59:36;;;;;;;28.27;17.98;;;7.90;99.90;;;;;;5035054;28;20172;-80
2022/03/02 08:02:04;;;;;;;29.52;16.85;;;8.20;99.90;;;;;;5034908;28;20198;-80
2022/03/02 08:04:31;;;;;;;28.60;16.58;;;8.30;99.90;;;;;;5034629;28;20589;-80
2022/03/02 08:06:57;;;;;;;22.90;15.23;;;8.40;99.90;;;;;;5034721;28;20164;-80
2022/03/02 08:09:23;;;;;;;52.35;17.20;;;8.20;99.90;;;;;;5034517;28;20661;-80
2022/03/02 08:11:48;;;;;;;28.70;15.63;;;8.30;99.90;;;;;;5034556;28;20183;-80
2022/03/02 08:14:14;;;;;;;31.67;17.42;;;8.30;99.90;;;;;;5034433;28;20171;-80
2022/03/02 08:16:43;;;;;;;29.45;16.65;;;8.40;99.90;;;;;;5034579;28;20179;-79
2022/03/02 08:19:08;;;;;;;28.67;15.35;;;8.40;99.90;;;;;;5034280;28;20171;-79
2022/03/02 08:21:36;;;;;;;25.70;15.43;;;8.40;99.90;;;;;;5034389;28;20171;-79
2022/03/02 08:24:06;;;;;;;25.90;15.73;;;8.20;99.90;;;;;;5033929;28;20258;-78
2022/03/02 08:26:33;;;;;;;38.97;16.45;;;8.30;99.90;;;;;;5034288;28;20160;-79
2022/03/02 08:29:06;;;;;;;31.92;15.52;;;8.40;99.90;;;;;;5034229;28;20167;-79
2022/03/02 08:31:34;;;;;;;43.60;16.60;;;8.50;99.90;;;;;;5034016;28;20184;-79
2022/03/02 08:34:01;;;;;;;28.27;15.63;;;8.50;99.90;;;;;;5034278;28;20160;-80
2022/03/02 08:36:33;;;;;;;33.92;17.63;;;8.60;99.90;;;;;;5032873;28;20178;-80
2022/03/02 08:39:04;;;;;;;43.03;18.15;;;8.60;99.90;;;;;;5034049;28;20159;-79
2022/03/02 08:41:31;;;;;;;34.42;15.93;;;8.50;99.90;;;;;;5032727;28;20183;-79
2022/03/02 08:43:58;;;;;;;35.08;17.08;;;8.30;99.90;;;;;;5034260;28;20171;-79
2022/03/02 08:46:25;;;;;;;37.83;16.63;;;8.40;99.90;;;;;;5033859;28;20198;-79
2022/03/02 08:48:52;;;;;;;115.13;22.50;;;8.30;99.90;;;;;;5032856;28;20202;-80
2022/03/02 08:51:22;;;;;;;48.90;16.83;;;8.30;99.90;;;;;;5032460;28;20213;-80
2022/03/02 08:53:50;;;;;;;76.75;20.00;;;8.40;99.90;;;;;;5033895;28;20196;-80
2022/03/02 08:56:16;;;;;;;30.08;16.38;;;8.40;99.90;;;;;;5032589;28;20195;-80
2022/03/02 08:58:42;;;;;;;35.28;15.70;;;8.50;99.90;;;;;;5033675;28;20179;-80
2022/03/02 09:01:11;;;;;;;26.67;15.30;;;8.80;99.90;;;;;;5032163;28;20177;-80
2022/03/02 09:03:41;;;;;;;41.00;18.83;;;9.30;99.90;;;;;;5033505;28;20172;-80
2022/03/02 09:06:07;;;;;;;26.75;15.60;;;9.40;99.90;;;;;;5033696;28;20185;-81
2022/03/02 09:08:33;;;;;;;27.15;15.63;;;9.30;99.90;;;;;;5033413;28;20230;-80
2022/03/02 09:11:00;;;;;;;46.72;17.70;;;9.20;99.90;;;;;;5033595;28;20250;-80
2022/03/02 09:13:25;;;;;;;43.22;16.45;;;9.20;99.90;;;;;;5033313;28;20232;-80
2022/03/02 09:15:51;;;;;;;33.42;15.70;;;9.20;99.90;;;;;;5033354;28;20187;-79
2022/03/02 09:18:17;;;;;;;28.30;15.95;;;9.20;99.90;;;;;;5033414;28;20633;-80
2022/03/02 09:20:46;;;;;;;28.42;16.15;;;9.00;99.90;;;;;;5033142;28;20628;-80
2022/03/02 09:23:12;;;;;;;28.88;15.93;;;9.10;99.90;;;;;;5033067;28;20605;-80
2022/03/02 09:25:39;;;;;;;39.90;16.60;;;9.40;99.90;;;;;;5031638;28;20680;-80
2022/03/02 09:28:08;;;;;;;28.98;15.90;;;9.40;99.90;;;;;;5032942;28;20172;-80
2022/03/02 09:30:35;;;;;;;25.00;14.93;;;9.50;99.90;;;;;;5031784;28;20207;-79
2022/03/02 09:33:01;;;;;;;20.33;13.85;;;9.30;99.90;;;;;;5033287;28;20171;-79
2022/03/02 09:35:29;;;;;;;16.00;12.65;;;9.60;99.90;;;;;;5032762;28;20249;-79
2022/03/02 09:37:56;;;;;;;25.15;14.23;;;9.40;99.90;;;;;;5033128;28;20168;-79
2022/03/02 09:40:21;;;;;;;38.10;14.10;;;9.20;99.90;;;;;;5033352;28;20176;-79
2022/03/02 09:42:54;;;;;;;21.58;12.93;;;9.00;99.90;;;;;;5032639;28;20179;-79
2022/03/02 09:45:21;;;;;;;28.38;13.40;;;9.40;99.90;;;;;;5031963;28;20548;-78
2022/03/02 09:47:52;;;;;;;20.05;13.45;;;9.50;99.90;;;;;;5032796;28;20247;-78
2022/03/02 09:50:18;;;;;;;29.83;13.85;;;9.40;99.90;;;;;;5031688;28;20230;-79
2022/03/02 09:52:47;;;;;;;25.17;16.00;;;9.60;99.90;;;;;;5031583;28;20172;-79
2022/03/02 09:55:21;;;;;;;36.13;14.73;;;9.70;99.90;;;;;;5032498;28;20245;-79
2022/03/02 09:57:50;;;;;;;27.63;14.55;;;9.90;99.90;;;;;;5032696;28;20174;-79
2022/03/02 10:00:19;;;;;;;31.52;14.43;;;10.10;99.90;;;;;;5031291;28;20540;-79
2022/03/02 10:02:47;;;;;;;27.83;14.13;;;10.20;99.90;;;;;;5032212;28;20186;-79
2022/03/02 10:05:21;;;;;;;23.60;14.02;;;10.30;99.90;;;;;;5032283;28;20263;-79
2022/03/02 10:07:53;;;;;;;29.15;14.80;;;10.30;99.90;;;;;;5030986;28;20171;-79
2022/03/02 10:10:22;;;;;;;23.55;15.40;;;10.50;99.90;;;;;;5031086;28;20211;-79
2022/03/02 10:12:49;;;;;;;45.38;14.98;;;10.10;99.90;;;;;;5032679;28;20167;-79
2022/03/02 10:15:15;;;;;;;28.77;14.38;;;10.30;99.90;;;;;;5032225;28;20191;-79
2022/03/02 10:17:43;;;;;;;31.65;15.60;;;10.30;99.90;;;;;;5031822;28;20159;-80
2022/03/02 10:20:11;;;;;;;23.80;15.38;;;10.60;99.90;;;;;;5032109;28;20217;-79
2022/03/02 10:22:39;;;;;;;26.42;14.48;;;10.50;99.90;;;;;;5032542;28;20164;-79
2022/03/02 10:25:10;;;;;;;28.70;14.50;;;10.40;99.90;;;;;;5031818;28;20276;-80
2022/03/02 10:28:02;;;;;;;35.13;14.57;;;10.50;99.90;;;;;;5031968;28;20233;-80
2022/03/02 10:30:36;;;;;;;27.27;14.23;;;10.70;99.90;;;;;;5030596;28;20740;-80
2022/03/02 10:33:23;;;;;;;20.50;13.90;;;11.00;99.90;;;;;;5032088;28;20171;-80
2022/03/02 10:36:08;;;;;;;20.95;13.20;;;11.00;99.90;;;;;;5030649;28;20196;-80
2022/03/02 10:39:06;;;;;;;23.33;13.10;;;10.90;99.90;;;;;;5032013;28;20168;-79
2022/03/02 10:41:37;;;;;;;18.60;11.95;;;11.20;99.90;;;;;;5030734;28;20245;-79
2022/03/02 10:44:06;;;;;;;19.75;12.57;;;11.20;99.90;;;;;;5030441;28;20171;-80
2022/03/02 10:46:33;;;;;;;21.85;12.77;;;11.10;99.90;;;;;;5031990;28;20178;-80
2022/03/02 10:49:04;;;;;;;29.70;13.25;;;10.90;99.90;;;;;;5031880;28;20164;-81
2022/03/02 10:51:35;;;;;;;25.20;13.20;;;10.80;99.90;;;;;;5030534;28;20595;-80
2022/03/02 10:54:06;;;;;;;22.02;14.10;;;10.80;99.90;;;;;;5031945;28;20625;-81
2022/03/02 10:56:40;;;;;;;24.98;12.77;;;10.80;99.90;;;;;;5032074;28;20298;-80
2022/03/02 10:59:16;;;;;;;39.33;15.20;;;11.00;99.90;;;;;;5034989;28;20168;-80
2022/03/02 11:01:42;;;;;;;20.90;12.75;;;11.20;99.90;;;;;;5035829;28;20175;-80
2022/03/02 11:04:09;;;;;;;30.27;13.90;;;11.20;99.90;;;;;;5035916;28;20176;-80
2022/03/02 11:06:36;;;;;;;26.58;13.35;;;11.10;99.90;;;;;;5035656;28;20168;-80
2022/03/02 11:09:02;;;;;;;31.48;12.63;;;11.20;99.90;;;;;;5035439;28;20191;-80
2022/03/02 11:11:32;;;;;;;20.27;12.70;;;11.10;99.90;;;;;;5034030;28;20180;-81
2022/03/02 11:13:58;;;;;;;28.88;13.82;;;11.10;99.90;;;;;;5035733;28;20628;-80
2022/03/02 11:16:25;;;;;;;17.48;12.82;;;11.00;99.90;;;;;;5035236;28;20196;-80
2022/03/02 11:18:52;;;;;;;23.17;13.20;;;10.90;99.90;;;;;;5035401;28;20196;-80
2022/03/02 11:21:22;;;;;;;32.95;15.77;;;10.90;99.90;;;;;;5033866;28;20168;-79
2022/03/02 11:23:54;;;;;;;37.28;14.73;;;11.10;99.90;;;;;;5035311;28;20164;-79
2022/03/02 11:26:25;;;;;;;26.30;12.55;;;11.00;99.90;;;;;;5035314;28;20175;-79
2022/03/02 11:29:06;;;;;;;32.67;14.25;;;10.90;99.90;;;;;;5035605;28;20174;-79
2022/03/02 11:31:45;;;;;;;22.55;13.77;;;11.00;99.90;;;;;;5034295;28;20191;-79
2022/03/02 11:34:20;;;;;;;18.33;13.32;;;11.20;99.90;;;;;;5035331;28;20167;-80
2022/03/02 11:36:53;;;;;;;36.65;13.82;;;11.30;99.90;;;;;;5035190;28;20555;-80
2022/03/02 11:39:22;;;;;;;21.33;12.38;;;11.20;99.90;;;;;;5034848;28;20203;-79
2022/03/02 11:41:53;;;;;;;24.58;13.27;;;10.90;99.90;;;;;;5035211;28;20205;-79
2022/03/02 11:44:29;;;;;;;25.48;14.02;;;10.90;99.90;;;;;;5033628;28;20172;-79
2022/03/02 11:46:55;;;;;;;27.92;14.20;;;11.10;99.90;;;;;;5034659;28;20171;-80
2022/03/02 11:49:20;;;;;;;28.48;13.38;;;11.10;99.90;;;;;;5034900;28;20190;-80
2022/03/02 11:52:04;;;;;;;28.98;14.27;;;11.20;99.90;;;;;;5036094;28;20613;-80
2022/03/02 11:55:06;;;;;;;36.92;14.27;;;11.30;99.90;;;;;;5034610;28;20475;-79
2022/03/02 11:57:40;;;;;;;23.92;13.90;;;11.10;99.90;;;;;;5024717;28;20266;-79
2022/03/02 12:00:21;;;;;;;24.75;14.40;;;11.10;99.90;;;;;;5034585;28;20183;-80
2022/03/02 12:02:52;;;;;;;29.50;14.63;;;11.10;99.90;;;;;;5034645;28;20176;-80
2022/03/02 12:05:20;;;;;;;26.20;14.48;;;11.10;99.90;;;;;;5034556;28;20667;-79
2022/03/02 12:07:48;;;;;;;30.38;14.75;;;11.10;99.90;;;;;;5032976;28;20628;-80
2022/03/02 12:10:18;;;;;;;21.52;12.88;;;11.20;99.90;;;;;;5033560;28;20676;-80
2022/03/02 12:12:44;;;;;;;28.67;12.95;;;11.10;99.90;;;;;;5034561;28;20183;-81
2022/03/02 12:15:10;;;;;;;21.20;11.80;;;10.90;99.90;;;;;;5034333;28;20192;-80
2022/03/02 12:17:36;;;;;;;26.75;13.07;;;10.90;99.90;;;;;;5033803;28;20242;-80
2022/03/02 12:20:10;;;;;;;22.67;12.30;;;11.10;99.90;;;;;;5034036;28;20243;-79
2022/03/02 12:22:41;;;;;;;147.90;18.23;;;11.00;99.90;;;;;;5034513;28;20965;-80
2022/03/02 12:25:10;;;;;;;48.70;13.45;;;11.00;99.90;;;;;;5033355;28;20213;-81
2022/03/02 12:27:36;;;;;;;123.45;17.88;;;11.20;99.90;;;;;;5032668;28;20179;-80
2022/03/02 12:30:07;;;;;;;90.50;15.57;;;11.30;99.90;;;;;;5034218;28;20191;-80
2022/03/02 12:32:35;;;;;;;24.10;11.52;;;11.20;99.90;;;;;;5034062;28;20172;-79
2022/03/02 12:35:04;;;;;;;20.33;11.70;;;11.20;99.90;;;;;;5034062;28;20187;-79
2022/03/02 12:37:30;;;;;;;12.48;9.50;;;11.30;99.90;;;;;;5033985;28;20654;-81
2022/03/02 12:39:56;;;;;;;16.73;10.35;;;11.30;99.90;;;;;;5034095;28;20211;-80
2022/03/02 12:42:22;;;;;;;21.98;10.75;;;11.40;99.90;;;;;;5033920;28;20668;-81